ADDS METAR Data INFO
IDs: Format: Raw Decoded Include TAF

Data at: 0029 UTC 11 Dec 2017

KJLN 102353Z 23006KT 10SM CLR 10/M05 A3017 RMK AO2 SLP218 T01001050 10144 20100 53003
KJLN 102253Z 27005KT 10SM CLR 12/M05 A3016 RMK AO2 SLP216 T01171050
KJLN 102153Z COR 27009KT 10SM CLR 14/M05 A3015 RMK AO2 SLP214 T01441050
KJLN 102053Z 27008KT 10SM CLR 14/M04 A3016 RMK AO2 SLP215 T01441039 56011
KJLN 101953Z 28013G17KT 10SM CLR 14/M04 A3016 RMK AO2 SLP217 T01391039
KJLN 101853Z 29008G16KT 10SM CLR 13/M04 A3017 RMK AO2 SLP221 T01281039
KJLN 101753Z 26008KT 10SM CLR 10/M03 A3019 RMK AO2 SLP228 T01001033 10106 20028 50001
KJLN 101653Z 24009KT 10SM CLR 08/M04 A3020 RMK AO2 SLP231 T00831039
KJLN 101553Z 25010KT 10SM CLR 06/M04 A3020 RMK AO2 SLP233 T00611039
KJLN 101453Z 23010KT 10SM CLR 04/M04 A3019 RMK AO2 SLP229 T00441039 53007
KJLN 101353Z 23010KT 10SM CLR 03/M04 A3018 RMK AO2 SLP226 T00331039
KJLN 101253Z 21012KT 10SM CLR 03/M04 A3016 RMK AO2 SLP218 T00331044
KJLN 101153Z 21013KT 10SM CLR 03/M05 A3017 RMK AO2 SLP221 T00281050 10028 21044 58017
KJLN 101053Z AUTO 21011KT 10SM CLR 01/M04 A3019 RMK AO2 SLP227 T00111044
KJLN 100953Z AUTO 21009KT 10SM CLR M01/M05 A3021 RMK AO2 SLP237 T10111050
KJLN 100853Z AUTO 20007KT 10SM CLR M02/M06 A3022 RMK AO2 SLP239 T10221061 56009
KJLN 100753Z AUTO 20006KT 10SM CLR M03/M06 A3022 RMK AO2 SLP239 T10281061
KJLN 100653Z AUTO 21007KT 10SM CLR M03/M07 A3023 RMK AO2 SLP243 T10331067
KJLN 100553Z AUTO 20006KT 10SM CLR M02/M07 A3025 RMK AO2 SLP248 T10171067 10028 21039 400781039 58006
KJLN 100453Z AUTO 20006KT 10SM CLR M03/M07 A3026 RMK AO2 SLP256 T10331072
KJLN 100353Z AUTO 22003KT 10SM CLR M02/M07 A3026 RMK AO2 SLP256 T10221067
KJLN 100253Z 23003KT 10SM CLR M02/M07 A3027 RMK AO2 SLP257 T10171067 51012
KJLN 100153Z 00000KT 10SM CLR 01/M07 A3025 RMK AO2 SLP252 T00111067
KJLN 100053Z 00000KT 10SM CLR 02/M07 A3025 RMK AO2 SLP250 T00221072
KJLN 092353Z 00000KT 10SM CLR 02/M07 A3023 RMK AO2 SLP244 T00221067 10078 20022 51016
KJLN 092253Z 32008KT 10SM CLR 05/M07 A3022 RMK AO2 SLP238 T00501067
KJLN 092153Z 30010KT 10SM CLR 07/M06 A3020 RMK AO2 SLP231 T00671061
KJLN 092053Z 30011KT 10SM CLR 07/M05 A3018 RMK AO2 SLP226 T00721050 53006
KJLN 091953Z 32013G22KT 10SM CLR 07/M06 A3017 RMK AO2 SLP221 T00721056
KJLN 091853Z 30016G24KT 10SM CLR 07/M04 A3017 RMK AO2 SLP220 T00671039
KJLN 091753Z 32016G22KT 10SM CLR 06/M04 A3016 RMK AO2 PK WND 32028/1719 SLP220 T00561044 10056 21033 50011
KJLN 091653Z 33016G24KT 10SM CLR 04/M04 A3017 RMK AO2 SLP220 T00441044
KJLN 091553Z 32016G22KT 10SM CLR 03/M03 A3015 RMK AO2 SLP215 T00331028
KJLN 091453Z 31008KT 10SM CLR 00/M03 A3013 RMK AO2 SLP209 T00001033 53027
KJLN 091353Z 30006KT 10SM CLR M03/M04 A3010 RMK AO2 SLP201 T10281044
KJLN 091253Z 28007KT 10SM CLR M03/M05 A3007 RMK AO2 SLP192 T10331050